Time;durP1;ratioP1;P1;durP2;ratioP2;P2;SDS_P1;SDS_P2;PMS_P1;PMS_P2;Temp;Humidity;BMP_temperature;BMP_pressure;BME280_temperature;BME280_humidity;BME280_pressure;Samples;Min_cycle;Max_cycle;Signal;HPM_P1;HPM_P2
2023/10/22 00:00:22;;;;;;;;;2.00;1.00;;;;;15.09;89.28;99775.59;6184687;23;54322;-67
2023/10/22 00:02:47;;;;;;;;;1.00;1.00;;;;;15.09;89.07;99777.44;6182185;23;50243;-67
2023/10/22 00:05:13;;;;;;;;;6.50;2.75;;;;;15.10;88.82;99776.44;6182844;23;48288;-68
2023/10/22 00:07:38;;;;;;;;;4.75;1.75;;;;;15.05;89.03;99774.09;6185137;23;45186;-67
2023/10/22 00:10:04;;;;;;;;;3.00;1.25;;;;;15.10;88.99;99784.50;6185593;23;45410;-67
2023/10/22 00:12:29;;;;;;;;;3.25;1.50;;;;;14.90;89.13;99756.28;6207949;22;45216;-68
2023/10/22 00:14:54;;;;;;;;;3.25;2.00;;;;;15.05;89.23;99787.53;6185386;23;47070;-67
2023/10/22 00:17:20;;;;;;;;;2.00;1.25;;;;;14.99;88.66;99778.03;6186398;23;45233;-67
2023/10/22 00:19:46;;;;;;;;;3.75;1.00;;;;;14.84;88.94;99757.53;6185930;23;45391;-67
2023/10/22 00:22:12;;;;;;;;;3.00;1.50;;;;;15.08;88.53;99806.09;6186388;23;45237;-68
2023/10/22 00:24:38;;;;;;;;;1.00;1.00;;;;;15.01;88.94;99789.53;6186301;23;45664;-67
2023/10/22 00:27:04;;;;;;;;;2.50;1.25;;;;;15.10;88.96;99801.53;6185089;23;45399;-68
2023/10/22 00:29:29;;;;;;;;;3.25;1.00;;;;;15.13;89.01;99806.66;6185246;23;45520;-67
2023/10/22 00:31:54;;;;;;;;;6.75;1.50;;;;;15.05;88.88;99802.75;6159423;23;45389;-67
2023/10/22 00:34:21;;;;;;;;;4.50;2.00;;;;;15.06;88.58;99797.28;6185638;23;59108;-67
2023/10/22 00:36:46;;;;;;;;;1.00;1.00;;;;;15.08;88.59;99806.09;6185992;23;45312;-67
2023/10/22 00:39:11;;;;;;;;;1.00;1.00;;;;;15.01;88.60;99800.28;6186641;23;45553;-68
2023/10/22 00:41:36;;;;;;;;;1.50;1.00;;;;;15.09;88.52;99823.97;6185826;23;45281;-67
2023/10/22 00:44:02;;;;;;;;;1.00;1.00;;;;;15.15;88.52;99837.00;6185252;23;46311;-67
2023/10/22 00:46:28;;;;;;;;;4.50;1.00;;;;;15.10;88.62;99825.72;6186389;23;45210;-68
2023/10/22 00:48:55;;;;;;;;;2.50;1.25;;;;;15.04;88.44;99815.34;6186595;23;45204;-68
2023/10/22 00:51:20;;;;;;;;;5.00;2.00;;;;;15.14;88.27;99835.28;6186379;23;46165;-68
2023/10/22 00:53:47;;;;;;;;;1.00;1.00;;;;;15.08;88.35;99827.59;6185458;23;45293;-68
2023/10/22 00:56:12;;;;;;;;;3.75;1.75;;;;;15.09;88.24;99828.50;6186202;23;45633;-68
2023/10/22 00:58:39;;;;;;;;;2.50;2.00;;;;;15.07;88.16;99835.78;6184107;23;45349;-67
2023/10/22 01:01:08;;;;;;;;;2.75;1.25;;;;;15.09;87.93;99834.72;6186051;23;45460;-68
2023/10/22 01:03:37;;;;;;;;;5.00;2.25;;;;;15.11;87.91;99837.31;6185782;23;45501;-67
2023/10/22 01:06:06;;;;;;;;;1.25;1.25;;;;;15.11;88.19;99837.31;6185779;23;45376;-67
2023/10/22 01:08:36;;;;;;;;;4.50;1.25;;;;;15.11;87.81;99846.22;6186623;23;45414;-67
2023/10/22 01:11:11;;;;;;;;;0.25;0.00;;;;;15.08;87.74;99838.34;6186187;23;45419;-68
2023/10/22 01:13:38;;;;;;;;;4.25;4.00;;;;;15.04;87.53;99836.84;6184576;23;45268;-68
2023/10/22 01:16:04;;;;;;;;;4.00;2.00;;;;;15.07;87.86;99838.47;6159383;23;45781;-67
2023/10/22 01:18:30;;;;;;;;;2.50;1.00;;;;;15.03;87.94;99845.00;6184129;23;45324;-67
2023/10/22 01:20:55;;;;;;;;;1.50;1.50;;;;;15.09;87.96;99858.91;6186172;23;45466;-67
2023/10/22 01:23:21;;;;;;;;;3.00;1.25;;;;;15.05;87.42;99851.13;6185875;23;45399;-68
2023/10/22 01:25:47;;;;;;;;;2.00;1.00;;;;;15.11;87.66;99858.81;6184701;23;45242;-68
2023/10/22 01:28:12;;;;;;;;;3.75;2.25;;;;;15.08;86.70;99861.69;6185128;23;45237;-67
2023/10/22 01:30:37;;;;;;;;;1.50;1.50;;;;;15.05;87.14;99859.22;6158781;23;45297;-67
2023/10/22 01:33:02;;;;;;;;;2.00;2.00;;;;;15.09;87.16;99869.66;6186008;23;45254;-68
2023/10/22 01:35:28;;;;;;;;;2.00;1.00;;;;;15.05;87.21;99865.47;6158716;23;53654;-68
2023/10/22 01:37:53;;;;;;;;;2.00;1.00;;;;;15.05;87.55;99856.50;6158165;23;45435;-68
2023/10/22 01:40:19;;;;;;;;;4.00;2.75;;;;;15.07;87.06;99871.59;6186182;23;45217;-67
2023/10/22 01:42:45;;;;;;;;;1.25;1.25;;;;;15.07;86.98;99863.53;6184200;23;46074;-68
2023/10/22 01:45:11;;;;;;;;;3.00;2.75;;;;;15.03;86.84;99856.63;6159003;23;45757;-68
2023/10/22 01:47:36;;;;;;;;;3.25;1.75;;;;;15.03;86.79;99858.44;6186230;23;45265;-68
2023/10/22 01:50:04;;;;;;;;;1.25;1.00;;;;;15.08;86.90;99865.25;6186326;23;45562;-67
2023/10/22 01:52:30;;;;;;;;;2.00;0.25;;;;;14.98;86.66;99869.50;6185608;23;46540;-68
2023/10/22 01:54:55;;;;;;;;;3.50;1.50;;;;;15.06;86.55;99880.59;6185005;23;45313;-68
2023/10/22 01:57:21;;;;;;;;;2.50;1.00;;;;;14.99;86.16;99866.69;6184998;23;45302;-68
2023/10/22 01:59:46;;;;;;;;;2.75;1.00;;;;;15.05;86.08;99891.47;6185928;23;45472;-67
2023/10/22 02:02:11;;;;;;;;;5.25;1.00;;;;;15.03;86.35;99890.69;6209338;22;47076;-67
2023/10/22 02:04:37;;;;;;;;;1.00;1.00;;;;;15.05;86.63;99886.06;6185352;23;48556;-67
2023/10/22 02:07:02;;;;;;;;;3.00;2.00;;;;;15.00;86.47;99883.69;6185610;23;45219;-68
2023/10/22 02:09:27;;;;;;;;;3.00;2.00;;;;;14.99;86.54;99890.03;6184556;23;45250;-67
2023/10/22 02:11:53;;;;;;;;;3.25;1.50;;;;;15.06;86.17;99895.88;6185230;23;49996;-68
2023/10/22 02:14:19;;;;;;;;;1.50;1.50;;;;;15.00;86.25;99886.38;6185974;23;45291;-67
2023/10/22 02:16:45;;;;;;;;;2.75;2.00;;;;;15.04;86.53;99893.28;6186269;23;45194;-68
2023/10/22 02:19:10;;;;;;;;;7.00;1.00;;;;;15.03;86.29;99896.06;6185443;23;45342;-68
2023/10/22 02:21:36;;;;;;;;;1.00;0.25;;;;;15.02;86.59;99903.28;6185893;23;45209;-67
2023/10/22 02:24:01;;;;;;;;;2.50;1.00;;;;;14.99;85.88;99906.16;6185282;23;45158;-68
2023/10/22 02:26:26;;;;;;;;;5.25;1.75;;;;;14.94;86.21;99897.53;6185890;23;45309;-67
2023/10/22 02:28:52;;;;;;;;;2.75;2.00;;;;;14.88;86.26;99898.78;6158278;23;45361;-67
2023/10/22 02:31:17;;;;;;;;;3.50;1.00;;;;;14.98;86.10;99931.28;6158993;23;45934;-68
2023/10/22 02:33:42;;;;;;;;;5.25;3.00;;;;;14.94;86.10;99927.09;6183080;23;47492;-67
2023/10/22 02:36:08;;;;;;;;;4.50;1.25;;;;;14.87;86.21;99921.25;6156973;23;60378;-67
2023/10/22 02:38:36;;;;;;;;;4.50;1.00;;;;;14.95;86.19;99927.00;6184802;23;45366;-67
2023/10/22 02:41:02;;;;;;;;;2.00;2.00;;;;;14.87;86.37;99920.34;6185748;23;45484;-67
2023/10/22 02:43:28;;;;;;;;;3.50;1.50;;;;;14.90;86.19;99925.53;6184635;23;45269;-68
2023/10/22 02:45:55;;;;;;;;;1.00;0.00;;;;;14.90;86.12;99931.81;6185218;23;45440;-67
2023/10/22 02:48:21;;;;;;;;;4.75;1.00;;;;;14.84;86.01;99936.69;6185700;23;45579;-67
2023/10/22 02:50:47;;;;;;;;;4.00;2.00;;;;;14.85;86.19;99941.97;6185739;23;45358;-68
2023/10/22 02:53:13;;;;;;;;;3.75;2.00;;;;;14.79;85.93;99937.84;6185498;23;45484;-67
2023/10/22 02:55:39;;;;;;;;;1.00;1.00;;;;;14.82;85.94;99934.97;6186107;23;45319;-68
2023/10/22 02:58:04;;;;;;;;;3.00;2.00;;;;;14.86;85.83;99943.69;6184630;23;45573;-67
2023/10/22 03:00:29;;;;;;;;;1.25;1.00;;;;;14.89;85.70;99950.72;6185657;23;46002;-67
2023/10/22 03:02:55;;;;;;;;;2.50;2.00;;;;;14.94;85.85;99959.34;6185620;23;45299;-68
2023/10/22 03:05:20;;;;;;;;;5.25;1.50;;;;;14.90;85.79;99957.78;6184687;23;45371;-67
2023/10/22 03:07:46;;;;;;;;;2.00;2.00;;;;;14.87;85.83;99952.59;6185176;23;45500;-67
2023/10/22 03:10:11;;;;;;;;;1.75;1.00;;;;;14.79;85.57;99940.53;6185382;23;45411;-67
2023/10/22 03:12:37;;;;;;;;;3.00;1.00;;;;;14.90;85.94;99957.78;6185443;23;45544;-67
2023/10/22 03:15:03;;;;;;;;;1.00;0.50;;;;;14.89;85.85;99961.47;6184400;23;45375;-67
2023/10/22 03:17:29;;;;;;;;;3.25;1.00;;;;;14.90;85.56;99972.13;6185073;23;45482;-67
2023/10/22 03:19:54;;;;;;;;;3.25;2.00;;;;;14.90;85.94;99976.59;6185382;23;45181;-67
2023/10/22 03:22:19;;;;;;;;;3.25;1.00;;;;;14.86;85.91;99973.25;6185554;23;45233;-67
2023/10/22 03:24:51;;;;;;;;;3.50;1.00;;;;;14.88;86.12;99979.38;6184861;23;53863;-67
2023/10/22 03:27:17;;;;;;;;;1.00;1.00;;;;;14.88;85.96;99975.84;6185273;23;45668;-68
2023/10/22 03:29:43;;;;;;;;;4.25;1.75;;;;;14.84;86.20;99982.38;6185057;23;45205;-67
2023/10/22 03:32:09;;;;;;;;;4.00;0.25;;;;;14.81;86.07;99976.22;6209129;22;45554;-67
2023/10/22 03:34:35;;;;;;;;;2.00;1.00;;;;;14.80;86.23;99981.69;6185701;23;45320;-67
2023/10/22 03:37:04;;;;;;;;;3.00;1.00;;;;;14.80;86.40;99985.25;6184997;23;45480;-68
2023/10/22 03:39:30;;;;;;;;;4.50;1.50;;;;;14.78;86.63;99984.50;6184348;23;46026;-67
2023/10/22 03:41:55;;;;;;;;;1.50;1.00;;;;;14.76;86.68;99990.91;6157915;23;46179;-67
2023/10/22 03:44:21;;;;;;;;;0.50;0.25;;;;;14.66;87.29;99995.97;6158339;23;45375;-67
2023/10/22 03:46:48;;;;;;;;;2.50;2.00;;;;;14.67;87.37;100003.09;6185308;23;45662;-67
2023/10/22 03:49:13;;;;;;;;;2.25;1.00;;;;;14.73;87.42;100012.56;6185789;23;46088;-67
2023/10/22 03:51:38;;;;;;;;;4.00;1.00;;;;;14.67;87.48;100007.56;6186784;23;45391;-67
2023/10/22 03:54:04;;;;;;;;;1.00;1.00;;;;;14.68;87.48;100012.00;6186195;23;45319;-67
2023/10/22 03:56:29;;;;;;;;;1.00;1.00;;;;;14.71;87.36;100018.03;6186053;23;45259;-67
2023/10/22 03:58:54;;;;;;;;;2.75;1.25;;;;;14.68;87.35;100018.22;6185488;23;55486;-67
2023/10/22 04:01:20;;;;;;;;;0.00;0.00;;;;;14.71;87.53;100031.47;6185977;23;45539;-67
2023/10/22 04:03:45;;;;;;;;;2.75;1.75;;;;;14.72;87.35;100038.59;6186211;23;48859;-67
2023/10/22 04:06:10;;;;;;;;;1.25;1.00;;;;;14.66;87.51;100035.41;6186408;23;45443;-67
2023/10/22 04:08:36;;;;;;;;;1.75;1.00;;;;;14.62;87.32;100032.06;6185874;23;45274;-67
2023/10/22 04:11:02;;;;;;;;;4.00;2.00;;;;;14.61;87.49;100039.22;6185614;23;51730;-67
2023/10/22 04:13:27;;;;;;;;;5.50;1.00;;;;;14.58;87.32;100042.09;6185809;23;45336;-67
2023/10/22 04:15:53;;;;;;;;;2.75;0.00;;;;;14.60;87.35;100039.31;6186582;23;45316;-68
2023/10/22 04:18:21;;;;;;;;;3.75;1.00;;;;;14.60;87.58;100036.63;6185450;23;46157;-67
2023/10/22 04:20:46;;;;;;;;;3.00;1.00;;;;;14.66;87.45;100054.22;6186291;23;45579;-67
2023/10/22 04:23:11;;;;;;;;;1.00;1.00;;;;;14.62;87.52;100051.69;6186640;23;45500;-67
2023/10/22 04:25:40;;;;;;;;;3.00;1.75;;;;;14.61;87.52;100046.41;6159004;23;55829;-68
2023/10/22 04:28:07;;;;;;;;;0.00;0.00;;;;;14.69;87.44;100056.72;6185798;23;46392;-67
2023/10/22 04:30:38;;;;;;;;;1.00;1.00;;;;;14.67;87.44;100054.13;6186180;23;45388;-67
2023/10/22 04:33:04;;;;;;;;;2.50;1.00;;;;;14.70;87.55;100067.38;6185832;23;45202;-68
2023/10/22 04:35:31;;;;;;;;;1.75;0.25;;;;;14.70;87.42;100077.22;6159644;23;45294;-67
2023/10/22 04:37:57;;;;;;;;;4.50;1.00;;;;;14.60;87.57;100063.47;6185561;23;47110;-67
2023/10/22 04:40:23;;;;;;;;;2.00;1.00;;;;;14.67;87.44;100077.41;6185954;23;45852;-67
2023/10/22 04:42:49;;;;;;;;;1.25;1.25;;;;;14.70;87.12;100086.19;6186487;23;45411;-67
2023/10/22 04:45:14;;;;;;;;;3.25;1.00;;;;;14.71;87.01;100098.63;6185919;23;45384;-68
2023/10/22 04:47:39;;;;;;;;;3.00;2.00;;;;;14.63;87.31;100090.16;6186111;23;45341;-67
2023/10/22 04:50:05;;;;;;;;;1.00;1.00;;;;;14.66;87.30;100099.88;6159575;23;45342;-67
2023/10/22 04:52:31;;;;;;;;;0.75;0.75;;;;;14.72;87.28;100096.84;6159261;23;45278;-68
2023/10/22 04:55:00;;;;;;;;;0.25;0.25;;;;;14.71;87.02;100097.78;6185789;23;45406;-67
2023/10/22 04:57:26;;;;;;;;;5.00;1.75;;;;;14.70;86.85;100110.34;6184701;23;45493;-67
2023/10/22 04:59:52;;;;;;;;;1.00;1.00;;;;;14.71;87.01;100116.56;6186127;23;45232;-67
2023/10/22 05:02:17;;;;;;;;;2.50;1.00;;;;;14.72;86.83;100113.81;6186501;23;45636;-67
2023/10/22 05:04:46;;;;;;;;;1.50;1.50;;;;;14.72;86.92;100113.81;6185494;23;45293;-67
2023/10/22 05:07:11;;;;;;;;;1.00;1.00;;;;;14.69;86.69;100116.66;6185283;23;46848;-67
2023/10/22 05:09:36;;;;;;;;;4.50;1.00;;;;;14.72;86.51;100132.59;6186369;23;45348;-67
2023/10/22 05:12:02;;;;;;;;;2.75;2.00;;;;;14.72;86.56;100132.59;6158618;23;48314;-67
2023/10/22 05:14:29;;;;;;;;;0.50;0.50;;;;;14.73;86.47;100131.63;6186036;23;45348;-67
2023/10/22 05:16:55;;;;;;;;;1.00;1.00;;;;;14.67;86.57;100134.72;6185624;23;46239;-67
2023/10/22 05:19:20;;;;;;;;;2.00;1.50;;;;;14.69;86.48;100146.22;6185392;23;45449;-67
2023/10/22 05:21:45;;;;;;;;;3.25;2.00;;;;;14.67;86.20;100145.44;6185057;23;45265;-67
2023/10/22 05:24:11;;;;;;;;;7.00;2.00;;;;;14.72;86.21;100159.47;6184553;23;45250;-68
2023/10/22 05:26:36;;;;;;;;;0.00;0.00;;;;;14.63;86.61;100143.88;6185188;23;54191;-67
2023/10/22 05:29:02;;;;;;;;;4.75;1.00;;;;;14.70;86.04;100158.72;6184221;23;45245;-68
2023/10/22 05:31:27;;;;;;;;;1.00;1.00;;;;;14.68;86.33;100159.75;6186219;23;45558;-67
2023/10/22 05:33:52;;;;;;;;;2.25;1.00;;;;;14.63;86.40;100143.88;6185889;23;45320;-67
2023/10/22 05:36:20;;;;;;;;;1.75;1.00;;;;;14.66;85.96;100157.13;6185138;23;46159;-67
2023/10/22 05:38:46;;;;;;;;;1.50;0.00;;;;;14.70;86.01;100169.44;6185523;23;45392;-67
2023/10/22 05:41:19;;;;;;;;;0.50;0.50;;;;;14.66;85.81;100164.34;6185759;23;45344;-67
2023/10/22 05:43:44;;;;;;;;;0.75;0.75;;;;;14.59;86.32;100161.16;6183709;23;45315;-67
2023/10/22 05:46:09;;;;;;;;;2.75;2.00;;;;;14.64;85.94;100177.84;6185367;23;49907;-67
2023/10/22 05:48:34;;;;;;;;;1.75;1.25;;;;;14.66;85.85;100177.78;6158610;23;49359;-67
2023/10/22 05:51:01;;;;;;;;;3.25;1.00;;;;;14.61;86.42;100172.66;6159419;23;45358;-67
2023/10/22 05:53:26;;;;;;;;;3.50;1.00;;;;;14.43;85.93;100147.69;6185684;23;45237;-67
2023/10/22 05:55:58;;;;;;;;;2.75;1.00;;;;;14.66;86.04;100186.69;6184535;23;46627;-67
2023/10/22 05:58:24;;;;;;;;;1.00;1.00;;;;;14.63;85.99;100195.81;6184504;23;45566;-67
2023/10/22 06:00:50;;;;;;;;;3.25;3.00;;;;;14.62;86.17;100187.84;6184543;23;45470;-67
2023/10/22 06:03:16;;;;;;;;;1.50;1.00;;;;;14.60;86.12;100178.97;6185375;23;45328;-67
2023/10/22 06:05:41;;;;;;;;;1.00;0.75;;;;;14.63;85.90;100198.50;6185915;23;45462;-67
2023/10/22 06:08:07;;;;;;;;;1.50;1.00;;;;;14.64;85.98;100194.84;6157537;23;50389;-67
2023/10/22 06:10:39;;;;;;;;;1.00;1.00;;;;;14.68;86.14;100208.09;6185165;23;45182;-67
2023/10/22 06:13:05;;;;;;;;;2.50;1.25;;;;;14.70;86.31;100209.75;6185278;23;45311;-67
2023/10/22 06:15:30;;;;;;;;;3.50;1.00;;;;;14.65;86.13;100209.16;6184652;23;61697;-67
2023/10/22 06:17:56;;;;;;;;;2.00;1.00;;;;;14.70;86.18;100224.97;6158803;23;45368;-67
2023/10/22 06:20:21;;;;;;;;;6.00;1.00;;;;;14.67;86.54;100226.03;6185989;23;45304;-67
2023/10/22 06:22:46;;;;;;;;;4.75;1.75;;;;;14.68;86.50;100233.13;6184405;23;46362;-67
2023/10/22 06:25:11;;;;;;;;;2.75;1.00;;;;;14.61;86.20;100221.00;6156292;23;63440;-72
2023/10/22 06:27:37;;;;;;;;;1.50;1.00;;;;;14.64;86.45;100228.91;6184446;23;50860;-70
2023/10/22 06:30:02;;;;;;;;;2.25;1.00;;;;;14.68;86.45;100238.50;6185400;23;45468;-71
2023/10/22 06:32:28;;;;;;;;;2.75;1.50;;;;;14.69;86.35;100232.19;6186131;23;45253;-69
2023/10/22 06:34:53;;;;;;;;;4.75;2.75;;;;;14.72;85.99;100237.38;6157953;23;46002;-69
2023/10/22 06:37:18;;;;;;;;;3.00;1.00;;;;;14.71;86.38;100235.63;6185573;23;45314;-69
2023/10/22 06:39:44;;;;;;;;;1.25;1.25;;;;;14.68;86.15;100234.94;6185753;23;45453;-69
2023/10/22 06:42:10;;;;;;;;;1.00;1.00;;;;;14.67;86.09;100236.78;6183057;23;45707;-69
2023/10/22 06:44:36;;;;;;;;;1.00;0.50;;;;;14.72;86.49;100250.81;6185353;23;45325;-69
2023/10/22 06:47:02;;;;;;;;;2.25;1.00;;;;;14.64;86.21;100248.56;6184632;23;45365;-69
2023/10/22 06:49:27;;;;;;;;;3.00;1.25;;;;;14.73;86.38;100263.28;6158385;23;45406;-70
2023/10/22 06:51:52;;;;;;;;;4.00;1.50;;;;;14.71;86.15;100267.03;6158054;23;45480;-70
2023/10/22 06:54:18;;;;;;;;;1.00;1.00;;;;;14.69;86.54;100263.56;6184875;23;51637;-71
2023/10/22 06:56:43;;;;;;;;;0.75;0.25;;;;;14.62;86.49;100266.59;6157164;23;48839;-71
2023/10/22 06:59:08;;;;;;;;;3.00;2.00;;;;;14.63;86.58;100270.13;6183785;23;49606;-69
2023/10/22 07:01:34;;;;;;;;;2.25;1.25;;;;;14.68;86.58;100272.56;6185095;23;55221;-68
2023/10/22 07:03:59;;;;;;;;;4.25;1.25;;;;;14.74;86.55;100291.88;6185411;23;48281;-68
2023/10/22 07:06:24;;;;;;;;;1.00;1.00;;;;;14.76;86.57;100289.97;6185808;23;45488;-68
2023/10/22 07:08:50;;;;;;;;;1.75;1.00;;;;;14.76;86.40;100295.34;6185202;23;46811;-68
2023/10/22 07:11:15;;;;;;;;;2.75;1.75;;;;;14.72;86.74;100292.94;6184121;23;45225;-68
2023/10/22 07:13:40;;;;;;;;;2.25;1.00;;;;;14.69;86.55;100293.97;6184432;23;45515;-68
2023/10/22 07:16:06;;;;;;;;;2.00;1.25;;;;;14.77;86.56;100306.97;6184223;23;45336;-68
2023/10/22 07:18:32;;;;;;;;;1.75;1.50;;;;;14.75;86.68;100301.69;6185073;23;45694;-68
2023/10/22 07:21:00;;;;;;;;;1.00;1.00;;;;;14.80;86.44;100320.22;6185646;23;45308;-68
2023/10/22 07:23:25;;;;;;;;;1.25;1.25;;;;;14.78;86.56;100319.44;6185141;23;46060;-68
2023/10/22 07:25:56;;;;;;;;;4.75;1.00;;;;;14.72;86.53;100312.59;6185160;23;45253;-68
2023/10/22 07:28:21;;;;;;;;;4.25;1.00;;;;;14.75;86.83;100317.81;6184825;23;45799;-68
2023/10/22 07:30:48;;;;;;;;;3.00;2.00;;;;;14.80;86.58;100330.97;6183037;23;45523;-68
2023/10/22 07:33:15;;;;;;;;;2.75;2.00;;;;;14.79;86.48;100334.63;6183634;23;47149;-69
2023/10/22 07:35:40;;;;;;;;;3.00;3.00;;;;;14.83;86.73;100349.59;6184352;23;45518;-68
2023/10/22 07:38:05;;;;;;;;;1.00;1.00;;;;;14.84;86.79;100359.41;6185469;23;45473;-68
2023/10/22 07:40:35;;;;;;;;;2.50;2.50;;;;;14.83;86.63;100365.72;6155073;23;45678;-66
2023/10/22 07:43:00;;;;;;;;;3.75;2.00;;;;;14.74;86.49;100369.78;6181213;23;45313;-66
2023/10/22 07:45:26;;;;;;;;;3.25;3.25;;;;;14.76;86.88;100369.72;6157005;23;45386;-66
2023/10/22 07:47:51;;;;;;;;;3.75;2.00;;;;;14.74;86.65;100366.25;6181106;23;45809;-66
2023/10/22 07:50:16;;;;;;;;;2.75;2.75;;;;;14.77;86.79;100375.00;6182895;23;49753;-66
2023/10/22 07:52:42;;;;;;;;;1.75;1.75;;;;;14.79;87.05;100375.78;6180991;23;56355;-66
2023/10/22 07:55:07;;;;;;;;;4.75;2.75;;;;;14.87;86.75;100387.91;6180096;23;57770;-66
2023/10/22 07:57:33;;;;;;;;;2.00;1.75;;;;;14.89;86.55;100383.34;6180937;23;45571;-66
2023/10/22 07:59:59;;;;;;;;;8.00;3.00;;;;;14.85;86.51;100385.34;6181396;23;45284;-66
2023/10/22 08:02:24;;;;;;;;;1.00;1.00;;;;;14.89;86.59;100388.72;6180889;23;46658;-66
2023/10/22 08:04:50;;;;;;;;;3.75;3.50;;;;;14.76;86.75;100375.94;6180708;23;45323;-66
2023/10/22 08:07:19;;;;;;;;;3.75;2.50;;;;;14.86;86.46;100388.88;6180981;23;45604;-66
2023/10/22 08:09:45;;;;;;;;;5.00;2.00;;;;;14.89;86.45;100391.41;6181099;23;45383;-66
2023/10/22 08:12:11;;;;;;;;;4.50;2.50;;;;;14.88;86.64;100395.88;6182217;23;45420;-66
2023/10/22 08:14:36;;;;;;;;;3.50;1.00;;;;;14.84;86.57;100385.41;6181858;23;45506;-66
2023/10/22 08:17:01;;;;;;;;;2.25;1.75;;;;;14.78;86.44;100381.22;6154646;23;47029;-66
2023/10/22 08:19:27;;;;;;;;;2.25;2.00;;;;;14.84;86.81;100397.03;6181456;23;45663;-66
2023/10/22 08:21:52;;;;;;;;;4.50;2.50;;;;;14.81;86.63;100386.44;6182222;23;54834;-66
2023/10/22 08:24:17;;;;;;;;;3.75;1.25;;;;;14.84;86.80;100393.47;6154836;23;58971;-66
2023/10/22 08:26:42;;;;;;;;;3.00;2.00;;;;;14.90;87.11;100403.88;6182861;23;54168;-67
2023/10/22 08:29:08;;;;;;;;;2.75;1.00;;;;;14.91;87.28;100411.00;6183978;23;45420;-66
2023/10/22 08:31:33;;;;;;;;;2.50;1.00;;;;;14.93;87.10;100409.06;6183469;23;45381;-66
2023/10/22 08:33:59;;;;;;;;;2.00;2.00;;;;;14.92;87.49;100410.91;6182879;23;45290;-66
2023/10/22 08:36:24;;;;;;;;;2.75;2.00;;;;;14.98;87.73;100418.63;6184208;23;45281;-66
2023/10/22 08:38:49;;;;;;;;;3.25;3.25;;;;;15.00;87.81;100424.78;6156689;23;47118;-66
2023/10/22 08:41:30;;;;;;;;;4.25;1.00;;;;;14.98;87.50;100424.00;6183586;23;45994;-66
2023/10/22 08:43:58;;;;;;;;;3.50;3.00;;;;;14.94;87.33;100416.19;6182824;23;45439;-66
2023/10/22 08:46:23;;;;;;;;;4.25;2.25;;;;;15.02;87.59;100432.75;6182922;23;45462;-66
2023/10/22 08:48:50;;;;;;;;;7.75;2.00;;;;;14.92;87.71;100421.66;6183374;23;45266;-66
2023/10/22 08:51:18;;;;;;;;;1.00;1.00;;;;;15.00;87.82;100424.78;6182621;23;47226;-66
2023/10/22 08:53:43;;;;;;;;;2.50;2.00;;;;;15.01;87.75;100434.56;6183325;23;45249;-66
2023/10/22 08:56:09;;;;;;;;;4.50;1.75;;;;;15.01;88.11;100437.25;6182091;23;46740;-66
2023/10/22 08:58:34;;;;;;;;;3.50;2.25;;;;;15.01;87.44;100439.09;6182637;23;45264;-66
2023/10/22 09:01:00;;;;;;;;;4.00;2.75;;;;;15.05;87.78;100451.41;6184201;23;45867;-66
2023/10/22 09:03:25;;;;;;;;;3.00;2.00;;;;;15.09;87.91;100452.97;6183266;23;45400;-66
2023/10/22 09:05:53;;;;;;;;;4.75;2.75;;;;;15.09;87.56;100457.47;6183325;23;45672;-66
2023/10/22 09:08:18;;;;;;;;;1.00;1.00;;;;;15.09;87.53;100454.78;6183963;23;45636;-66
2023/10/22 09:10:44;;;;;;;;;5.50;3.00;;;;;15.16;87.46;100467.78;6183740;23;45250;-67
2023/10/22 09:13:14;;;;;;;;;4.00;3.75;;;;;15.21;87.79;100477.44;6184529;23;45265;-67
2023/10/22 09:15:43;;;;;;;;;1.50;1.00;;;;;15.17;87.62;100469.53;6183609;23;45273;-66
2023/10/22 09:18:09;;;;;;;;;1.00;1.00;;;;;15.13;87.21;100467.94;6184568;23;45483;-67
2023/10/22 09:20:34;;;;;;;;;1.25;1.00;;;;;15.21;87.58;100482.81;6182793;23;46211;-67
2023/10/22 09:23:18;;;;;;;;;1.25;1.25;;;;;15.22;87.17;100487.22;6184078;23;45267;-66
2023/10/22 09:25:48;;;;;;;;;2.50;2.50;;;;;15.15;86.93;100479.50;6182052;23;45436;-66
2023/10/22 09:28:24;;;;;;;;;2.00;1.50;;;;;15.16;87.14;100473.16;6183601;23;45683;-66
2023/10/22 09:31:04;;;;;;;;;4.50;1.75;;;;;15.25;87.43;100479.88;6182820;23;46010;-66
2023/10/22 09:33:42;;;;;;;;;3.25;1.50;;;;;15.26;87.33;100491.50;6183380;23;45245;-66
2023/10/22 09:36:12;;;;;;;;;2.25;2.00;;;;;15.27;87.36;100480.66;6157359;23;45515;-66
2023/10/22 09:38:47;;;;;;;;;3.00;1.25;;;;;15.33;87.17;100487.50;6182971;23;45321;-66
2023/10/22 09:41:30;;;;;;;;;2.50;1.00;;;;;15.28;87.20;100468.06;6182881;23;46270;-66
2023/10/22 09:43:58;;;;;;;;;1.25;1.25;;;;;15.40;86.89;100488.00;6183287;23;45390;-66
2023/10/22 09:46:29;;;;;;;;;1.00;1.00;;;;;15.33;86.73;100469.53;6157614;23;45513;-66
2023/10/22 09:48:57;;;;;;;;;1.50;1.50;;;;;15.36;86.60;100466.66;6183381;23;45818;-66
2023/10/22 09:51:23;;;;;;;;;0.00;0.00;;;;;15.49;86.26;100490.19;6156506;23;46230;-66
2023/10/22 09:53:53;;;;;;;;;2.00;2.00;;;;;15.44;86.00;100479.69;6182935;23;45259;-66
2023/10/22 09:56:22;;;;;;;;;1.00;1.00;;;;;15.51;86.07;100497.22;6156459;23;45366;-67
2023/10/22 09:58:53;;;;;;;;;3.25;3.25;;;;;15.53;85.99;100492.59;6182089;23;45427;-66
2023/10/22 10:01:19;;;;;;;;;2.00;2.00;;;;;15.52;85.58;100481.94;6182142;23;46143;-66
2023/10/22 10:03:45;;;;;;;;;3.25;2.00;;;;;15.62;85.93;100501.09;6183381;23;45503;-66
2023/10/22 10:06:11;;;;;;;;;2.25;2.00;;;;;15.60;85.48;100490.44;6184435;23;45322;-67
2023/10/22 10:08:40;;;;;;;;;1.00;1.00;;;;;15.66;85.63;100500.00;6184879;23;45399;-66
2023/10/22 10:11:08;;;;;;;;;1.00;1.00;;;;;15.69;85.07;100502.50;6183540;23;45739;-66
2023/10/22 10:13:35;;;;;;;;;3.25;1.75;;;;;15.66;85.02;100489.22;6181586;23;45714;-66
2023/10/22 10:16:02;;;;;;;;;2.00;1.00;;;;;15.71;84.60;100504.13;6182530;23;45455;-67
2023/10/22 10:18:59;;;;;;;;;3.50;3.00;;;;;15.74;84.19;100514.72;6181532;23;45734;-67
2023/10/22 10:21:34;;;;;;;;;1.25;1.00;;;;;15.76;84.08;100511.13;6184749;23;45387;-67
2023/10/22 10:24:15;;;;;;;;;3.75;1.75;;;;;15.80;83.42;100520.75;6185833;23;45285;-66
2023/10/22 10:26:41;;;;;;;;;3.00;1.00;;;;;15.76;83.23;100506.59;6183794;23;45340;-67
2023/10/22 10:29:06;;;;;;;;;1.00;1.00;;;;;15.83;83.32;100513.34;6183255;23;45324;-66
2023/10/22 10:31:32;;;;;;;;;1.00;1.00;;;;;15.89;83.07;100512.16;6184134;23;45368;-66
2023/10/22 10:34:01;;;;;;;;;2.00;0.00;;;;;15.93;82.46;100517.25;6182461;23;45450;-66
2023/10/22 10:36:28;;;;;;;;;2.00;0.00;;;;;15.90;81.82;100508.47;6184941;23;45230;-66
2023/10/22 10:38:53;;;;;;;;;1.50;0.00;;;;;15.97;80.81;100525.13;6183005;23;45344;-67
2023/10/22 10:41:54;;;;;;;;;3.00;0.00;;;;;15.93;80.34;100524.47;6183859;23;46320;-66
2023/10/22 10:44:19;;;;;;;;;1.00;0.00;;;;;15.95;80.23;100517.16;6133839;23;45220;-66
2023/10/22 10:46:45;;;;;;;;;0.75;0.75;;;;;15.92;80.00;100517.31;6184207;23;45522;-66
2023/10/22 10:49:10;;;;;;;;;1.00;1.00;;;;;15.98;79.94;100519.66;6183747;23;45434;-67
2023/10/22 10:51:35;;;;;;;;;1.75;1.00;;;;;15.96;79.50;100518.91;6181972;23;45398;-67
2023/10/22 10:54:01;;;;;;;;;1.00;0.00;;;;;16.05;79.02;100530.94;6155268;23;45322;-67
2023/10/22 10:56:52;;;;;;;;;1.00;1.00;;;;;16.09;78.81;100527.13;6182797;23;45201;-67
2023/10/22 10:59:28;;;;;;;;;3.00;1.75;;;;;16.11;78.63;100525.22;6181856;23;45237;-67
2023/10/22 11:02:01;;;;;;;;;2.50;1.00;;;;;16.13;78.75;100535.91;6181289;23;45555;-67
2023/10/22 11:04:27;;;;;;;;;1.25;1.00;;;;;16.15;78.90;100533.97;6183096;23;45578;-67
2023/10/22 11:06:52;;;;;;;;;2.75;1.00;;;;;16.12;78.32;100524.22;6183455;23;45272;-67
2023/10/22 11:09:18;;;;;;;;;1.00;1.00;;;;;16.15;77.81;100521.38;6181552;23;45444;-67
2023/10/22 11:12:04;;;;;;;;;1.75;0.00;;;;;16.23;77.24;100529.84;6182242;23;46755;-67
2023/10/22 11:14:31;;;;;;;;;1.00;1.00;;;;;16.25;77.35;100525.25;6181021;23;45486;-67
2023/10/22 11:16:58;;;;;;;;;4.50;2.00;;;;;16.25;77.48;100529.78;6182643;23;45321;-67
2023/10/22 11:19:28;;;;;;;;;2.00;1.00;;;;;16.25;76.49;100513.59;6182291;23;45412;-67
2023/10/22 11:21:56;;;;;;;;;7.25;1.00;;;;;16.33;76.04;100523.94;6182967;23;45297;-67
2023/10/22 11:24:32;;;;;;;;;1.00;0.25;;;;;16.33;76.09;100522.09;6183414;23;45253;-67